Ketchum, OK (74349)

3:18 PM CDT on August 25, 2016 (GMT -0500)
Ketchum Cove | | Change Station

Elev 801 ft 36.51 °N, 95.02 °W | Updated 4 seconds ago

Scattered Clouds
Scattered Clouds
93.9 °F
Feels Like 101 °F
N
3.6
Wind Variable Wind from West
Gusts 4.9 mph

Today
High -- | Low -- °F
--% Chance of Precip.
Yesterday
High -- | Low -- °F
Precip. -- in
Pressure 30.03 in
Visibility 10.0 miles
Clouds Scattered Clouds 6000 ft
Heat Index 101 °F
Dew Point 71 °F
Humidity 48%
Rainfall 0.00 in
Snow Depth Not available.
6:46 AM 7:57 PM
Last Quarter, 42% visible
METAR KGMJ 252015Z AUTO 22009G14KT 190V250 10SM SCT060 35/20 A3003 RMK AO2
Pressure 30.03 in
Visibility 10.0 miles
Clouds Scattered Clouds 6000 ft
Heat Index 101 °F
Dew Point 71 °F
Humidity 48%
Rainfall 0.00 in
Snow Depth Not available.
6:46 AM 7:57 PM
Last Quarter, 42% visible
METAR KGMJ 252015Z AUTO 22009G14KT 190V250 10SM SCT060 35/20 A3003 RMK AO2
A tropical disturbance pushing toward the Bahamas, is expected to develop into a tropical depression or storm, and will likely target Florida and the Gulf Coast this weekend into next week.

Right now, the disturbance remains a broad area of low pressure pushing through the Dominican Republic and Haiti, headed toward the southeast Bahamas. Rainfall totals over 3 inches (with locally higher amounts) are expected in HispaƱiola, particularly over elevated terrain.

10-Day Weather Forecast

Almanac

Astronomy

Aug. 25, 2016 Rise Set
Actual Time
Civil Twilight
Nautical Twilight
Astronomical Twilight
Moon
Length of Visible Light
Length of Day
Tomorrow will be .
, % of the Moon is Illuminated

Today's Extremes

State Highs State Lows

Community

WunderPhotos

Upload Photos

1,934,921 photos uploaded!

WunderBlog® & News

Nearby

Air Quality

  Air Quality AQ Index Pollutant
Not available.

Snow Depth

Station Depth Elevation

Earthquake Activity

City Distance Mag. Time & Date
Minimum magnitude displayed is 2.5.

Coastal Water Temperatures

Place Temperature

Stations

Nearby Weather Stations

Station Location Temp. Windchill Dew Point Humidity Wind Precip. Elev Updated Type
                   

Watches & Warnings

There are currently no watches in effect.